createdAt,value
2022-10-16T00:01:09.263Z,17.88
2022-10-16T00:06:09.370Z,17.69
2022-10-16T00:12:27.934Z,17.69
2022-10-16T00:17:26.609Z,17.46
2022-10-16T00:22:27.030Z,17.50
2022-10-16T00:27:26.519Z,17.54
2022-10-16T00:32:26.747Z,17.53
2022-10-16T00:37:26.408Z,17.43
2022-10-16T00:42:26.734Z,17.17
2022-10-16T00:47:26.198Z,16.90
2022-10-16T00:52:26.518Z,16.88
2022-10-16T00:57:26.199Z,16.75
2022-10-16T01:02:29.270Z,16.49
2022-10-16T01:07:26.300Z,16.09
2022-10-16T01:12:25.936Z,16.27
2022-10-16T01:17:26.064Z,16.35
2022-10-16T01:22:25.969Z,16.33
2022-10-16T01:27:26.096Z,16.49
2022-10-16T01:32:25.759Z,16.75
2022-10-16T01:37:25.769Z,16.89
2022-10-16T01:42:25.618Z,16.93
2022-10-16T01:47:25.627Z,16.74
2022-10-16T01:52:25.650Z,16.68
2022-10-16T01:57:25.410Z,16.52
2022-10-16T02:02:28.644Z,16.58
2022-10-16T02:07:25.249Z,16.15
2022-10-16T02:12:25.420Z,16.48
2022-10-16T02:17:25.191Z,16.25
2022-10-16T02:23:54.924Z,16.60
2022-10-16T02:29:02.214Z,16.62
2022-10-16T02:35:11.593Z,16.59
2022-10-16T02:40:11.321Z,16.33
2022-10-16T02:45:11.164Z,16.26
2022-10-16T02:50:11.078Z,16.11
2022-10-16T02:55:11.183Z,15.64
2022-10-16T03:00:10.931Z,15.75
2022-10-16T03:05:11.145Z,15.66
2022-10-16T03:10:10.859Z,15.97
2022-10-16T03:15:11.520Z,16.14
2022-10-16T03:21:28.424Z,16.34
2022-10-16T03:26:28.332Z,16.31
2022-10-16T03:31:28.249Z,16.42
2022-10-16T03:36:28.144Z,16.38
2022-10-16T03:41:28.013Z,16.37
2022-10-16T03:46:28.123Z,16.33
2022-10-16T03:51:28.020Z,16.34
2022-10-16T03:56:27.824Z,15.97
2022-10-16T04:01:27.894Z,15.89
2022-10-16T04:06:27.718Z,15.79
2022-10-16T04:11:30.704Z,15.94
2022-10-16T04:16:27.844Z,15.42
2022-10-16T04:21:27.729Z,15.66
2022-10-16T04:26:27.374Z,15.49
2022-10-16T04:31:27.319Z,15.56
2022-10-16T04:36:29.205Z,15.56
2022-10-16T04:41:37.978Z,15.92
2022-10-16T04:46:27.159Z,15.81
2022-10-16T04:51:27.114Z,16.01
2022-10-16T04:56:26.974Z,16.25
2022-10-16T05:01:27.054Z,16.40
2022-10-16T05:06:26.959Z,16.33
2022-10-16T05:11:29.891Z,16.45
2022-10-16T05:16:26.799Z,16.52
2022-10-16T05:21:26.809Z,16.99
2022-10-16T05:26:26.568Z,16.86
2022-10-16T05:31:26.626Z,16.81
2022-10-16T05:36:26.508Z,16.27
2022-10-16T05:41:26.476Z,15.96
2022-10-16T05:46:26.355Z,16.25
2022-10-16T05:51:26.369Z,16.71
2022-10-16T05:56:26.299Z,16.90
2022-10-16T06:01:26.199Z,16.70
2022-10-16T06:06:26.151Z,16.68
2022-10-16T06:11:29.261Z,16.26
2022-10-16T06:16:26.144Z,16.09
2022-10-16T06:21:26.243Z,16.45
2022-10-16T06:40:19.003Z,17.85
2022-10-16T06:53:06.888Z,17.04
2022-10-16T06:58:15.284Z,17.85
2022-10-16T07:03:06.785Z,17.74
2022-10-16T07:18:11.878Z,17.92
2022-10-16T07:28:51.004Z,17.87
2022-10-16T07:36:51.601Z,18.59
2022-10-16T07:41:51.589Z,18.97
2022-10-16T07:48:09.323Z,19.48
2022-10-16T07:54:29.902Z,19.70
2022-10-16T07:59:29.697Z,19.84
2022-10-16T08:04:29.530Z,19.94
2022-10-16T08:10:55.539Z,19.98
2022-10-16T08:24:16.504Z,20.24
2022-10-16T09:11:30.274Z,20.98
2022-10-16T09:16:30.028Z,20.81
2022-10-16T09:21:30.074Z,21.24
2022-10-16T09:26:30.067Z,21.19
2022-10-16T09:34:06.953Z,21.09
2022-10-16T09:55:42.259Z,22.14
2022-10-16T10:07:50.251Z,21.91
2022-10-16T10:18:44.139Z,22.01
2022-10-16T10:26:29.143Z,22.34
2022-10-16T10:36:03.915Z,23.35
2022-10-16T10:42:47.670Z,24.10
2022-10-16T10:56:22.415Z,23.50
2022-10-16T11:04:17.858Z,23.55
2022-10-16T11:10:34.744Z,23.68
2022-10-16T11:15:35.459Z,23.47
2022-10-16T11:22:02.833Z,23.65
2022-10-16T11:27:02.474Z,22.83
2022-10-16T12:15:15.872Z,23.01
2022-10-16T12:19:55.411Z,23.72
2022-10-16T12:24:54.188Z,24.08
2022-10-16T12:29:54.639Z,24.37
2022-10-16T12:34:54.019Z,24.14
2022-10-16T12:39:54.215Z,25.02
2022-10-16T12:44:53.859Z,24.94
2022-10-16T12:49:55.071Z,25.10
2022-10-16T12:54:53.831Z,25.20
2022-10-16T13:00:01.579Z,25.15
2022-10-16T13:04:56.952Z,25.22
2022-10-16T13:09:53.588Z,25.62
2022-10-16T13:14:53.468Z,25.00
2022-10-16T13:19:53.482Z,24.29
2022-10-16T13:24:53.365Z,23.01
2022-10-16T13:29:53.319Z,22.69
2022-10-16T13:34:53.200Z,22.90
2022-10-16T13:40:01.862Z,23.79
2022-10-16T13:44:53.157Z,23.98
2022-10-16T13:49:53.149Z,23.40
2022-10-16T13:54:53.843Z,23.75
2022-10-16T13:59:52.953Z,23.77
2022-10-16T14:04:55.840Z,23.24
2022-10-16T14:09:52.750Z,22.90
2022-10-16T14:14:52.716Z,23.01
2022-10-16T14:19:56.932Z,22.72
2022-10-16T14:24:53.669Z,23.01
2022-10-16T14:29:52.540Z,23.12
2022-10-16T14:34:52.548Z,22.56
2022-10-16T14:39:52.406Z,22.87
2022-10-16T14:44:52.367Z,22.59
2022-10-16T14:49:52.195Z,22.56
2022-10-16T14:54:52.169Z,22.50
2022-10-16T14:59:52.184Z,22.77
2022-10-16T15:04:55.086Z,22.80
2022-10-16T15:09:59.867Z,23.07
2022-10-16T15:14:59.324Z,23.50
2022-10-16T15:19:59.566Z,23.57
2022-10-16T15:24:59.208Z,23.35
2022-10-16T15:29:59.449Z,22.96
2022-10-16T15:34:51.596Z,22.78
2022-10-16T15:39:51.571Z,22.54
2022-10-16T15:44:51.784Z,22.02
2022-10-16T15:49:51.503Z,22.09
2022-10-16T15:54:54.110Z,22.23
2022-10-16T15:59:51.499Z,22.09
2022-10-16T16:04:54.227Z,21.60
2022-10-16T16:09:51.152Z,21.42
2022-10-16T16:16:19.704Z,21.69
2022-10-16T16:21:19.491Z,20.84
2022-10-16T16:26:19.662Z,20.24
2022-10-16T16:31:19.359Z,19.75
2022-10-16T16:36:19.405Z,19.28
2022-10-16T16:41:19.243Z,19.20
2022-10-16T16:46:19.373Z,19.11
2022-10-16T16:51:19.142Z,18.97
2022-10-16T16:56:20.408Z,18.65
2022-10-16T17:01:20.797Z,18.70
2022-10-16T17:06:22.030Z,18.22
2022-10-16T17:11:19.093Z,17.82
2022-10-16T17:16:18.884Z,18.12
2022-10-16T17:21:18.720Z,18.27
2022-10-16T17:26:18.820Z,18.43
2022-10-16T17:31:18.660Z,18.49
2022-10-16T17:36:18.573Z,18.43
2022-10-16T17:41:18.461Z,18.86
2022-10-16T17:46:18.743Z,19.32
2022-10-16T17:51:18.343Z,18.80
2022-10-16T17:56:18.444Z,18.64
2022-10-16T18:01:18.277Z,18.80
2022-10-16T18:06:23.142Z,18.99
2022-10-16T18:11:18.139Z,18.42
2022-10-16T18:16:18.193Z,18.84
2022-10-16T18:21:17.967Z,18.77
2022-10-16T18:26:17.948Z,18.03
2022-10-16T18:31:18.120Z,17.92
2022-10-16T18:36:17.779Z,17.54
2022-10-16T18:41:17.665Z,17.25
2022-10-16T18:46:17.676Z,17.30
2022-10-16T18:51:17.517Z,17.22
2022-10-16T18:56:17.490Z,17.26
2022-10-16T19:01:17.468Z,17.04
2022-10-16T19:06:20.477Z,16.65
2022-10-16T19:11:17.273Z,16.25
2022-10-16T19:16:21.388Z,16.41
2022-10-16T19:21:17.162Z,16.68
2022-10-16T19:26:17.122Z,16.70
2022-10-16T19:31:17.063Z,16.71
2022-10-16T19:36:16.981Z,16.80
2022-10-16T19:41:16.956Z,16.95
2022-10-16T19:46:16.938Z,17.14
2022-10-16T19:51:24.323Z,16.59
2022-10-16T19:56:16.689Z,16.75
2022-10-16T20:01:16.754Z,16.88
2022-10-16T20:06:26.598Z,16.34
2022-10-16T20:11:16.557Z,15.99
2022-10-16T20:16:16.546Z,16.40
2022-10-16T20:21:16.379Z,15.78
2022-10-16T20:26:16.344Z,15.66
2022-10-16T20:31:16.227Z,15.67
2022-10-16T20:36:16.333Z,15.68
2022-10-16T20:41:16.154Z,15.88
2022-10-16T20:46:16.236Z,15.82
2022-10-16T20:51:16.008Z,15.76
2022-10-16T20:56:15.988Z,15.94
2022-10-16T21:01:15.946Z,16.03
2022-10-16T21:06:18.838Z,15.75
2022-10-16T21:11:15.719Z,15.64
2022-10-16T21:16:15.708Z,15.74
2022-10-16T21:21:15.568Z,15.81
2022-10-16T21:26:15.761Z,15.76
2022-10-16T21:31:15.444Z,16.03
2022-10-16T21:36:15.412Z,16.18
2022-10-16T21:41:15.301Z,16.06
2022-10-16T21:46:15.299Z,15.93
2022-10-16T21:51:15.183Z,15.70
2022-10-16T21:56:15.140Z,16.01
2022-10-16T22:01:15.180Z,15.86
2022-10-16T22:06:18.066Z,16.00
2022-10-16T22:11:15.031Z,15.67
2022-10-16T22:16:14.901Z,15.56
2022-10-16T22:21:14.773Z,15.48
2022-10-16T22:26:14.824Z,15.46
2022-10-16T22:31:14.767Z,15.60
2022-10-16T22:36:14.709Z,15.84
2022-10-16T22:41:14.511Z,15.76
2022-10-16T22:46:14.489Z,15.36
2022-10-16T22:51:16.824Z,15.09
2022-10-16T22:56:14.338Z,15.38
2022-10-16T23:01:14.247Z,15.54
2022-10-16T23:06:17.208Z,15.46
2022-10-16T23:11:14.189Z,14.86
2022-10-16T23:16:14.318Z,14.46
2022-10-16T23:21:13.969Z,14.68
2022-10-16T23:26:13.996Z,14.87
2022-10-16T23:31:13.843Z,14.75
2022-10-16T23:36:13.793Z,14.68
2022-10-16T23:41:21.608Z,14.52
2022-10-16T23:46:21.189Z,14.61
2022-10-16T23:51:13.648Z,14.47
2022-10-16T23:56:13.643Z,14.44
